Terminal Aerodrome Forecast
Issued by NWS

Home | Current Version | Previous Version | Text Only | Print | Product List | Glossary On
Versions: 1 2 3 4 5 6 7 8 9 10 11 12 13 14 15 16 17
000
FTUS46 KSGX 012328
TAFSNA
TAF
KSNA 012328Z 0200/0224 22009KT P6SM SCT200
     FM020300 VRB05KT P6SM SCT015
     FM020700 VRB03KT P6SM OVC012
     FM021700 VRB05KT P6SM SCT015
     FM021900 23009KT P6SM FEW016 FEW250=

USA.gov is the U.S. government's official web portal to all federal, state and local government web resources and services.